createdAt,value
2023-04-02T00:01:26.799Z,83.22
2023-04-02T00:06:45.125Z,83.17
2023-04-02T00:11:48.595Z,83.05
2023-04-02T00:16:48.824Z,83.09
2023-04-02T00:21:50.839Z,82.88
2023-04-02T00:26:52.419Z,82.79
2023-04-02T00:31:55.298Z,82.62
2023-04-02T00:36:55.497Z,82.77
2023-04-02T00:42:05.298Z,82.67
2023-04-02T00:47:15.344Z,82.73
2023-04-02T00:52:18.544Z,82.82
2023-04-02T00:57:25.625Z,82.84
2023-04-02T01:02:34.227Z,82.71
2023-04-02T01:07:55.058Z,82.84
2023-04-02T01:13:07.010Z,82.91
2023-04-02T01:18:31.504Z,82.94
2023-04-02T01:23:37.621Z,82.91
2023-04-02T01:29:06.977Z,82.92
2023-04-02T01:34:13.067Z,82.82
2023-04-02T01:39:26.127Z,82.83
2023-04-02T01:44:34.593Z,82.99
2023-04-02T01:49:34.408Z,83.04
2023-04-02T01:54:34.803Z,82.98
2023-04-02T01:59:36.091Z,83.06
2023-04-02T02:04:37.758Z,82.99
2023-04-02T02:09:41.460Z,83.17
2023-04-02T02:14:41.650Z,83.04
2023-04-02T02:19:45.607Z,83.10
2023-04-02T02:24:45.759Z,83.22
2023-04-02T02:29:48.297Z,83.23
2023-04-02T02:34:56.136Z,83.23
2023-04-02T02:40:01.229Z,83.22
2023-04-02T02:45:06.719Z,83.18
2023-04-02T02:50:15.303Z,83.26
2023-04-02T02:55:19.724Z,83.25
2023-04-02T03:00:33.841Z,83.24
2023-04-02T03:05:33.768Z,83.23
2023-04-02T03:10:50.179Z,83.16
2023-04-02T03:16:01.440Z,83.10
2023-04-02T03:21:08.607Z,83.09
2023-04-02T03:26:18.338Z,83.05
2023-04-02T03:31:26.718Z,83.08
2023-04-02T03:36:32.649Z,83.14
2023-04-02T03:41:40.878Z,83.07
2023-04-02T03:46:51.099Z,83.15
2023-04-02T03:52:00.319Z,83.18
2023-04-02T03:57:00.660Z,83.17
2023-04-02T04:02:11.932Z,83.14
2023-04-02T04:07:21.441Z,83.15
2023-04-02T04:12:32.434Z,83.19
2023-04-02T04:17:41.142Z,83.32
2023-04-02T04:22:40.970Z,83.36
2023-04-02T04:28:18.606Z,83.36
2023-04-02T04:33:23.829Z,83.36
2023-04-02T04:38:35.142Z,83.46
2023-04-02T04:43:46.873Z,83.51
2023-04-02T04:48:59.787Z,83.36
2023-04-02T04:54:02.059Z,83.31
2023-04-02T04:59:14.226Z,83.23
2023-04-02T05:04:23.510Z,83.23
2023-04-02T05:09:30.244Z,83.29
2023-04-02T05:14:38.315Z,83.14
2023-04-02T05:19:46.704Z,83.15
2023-04-02T05:25:10.853Z,83.16
2023-04-02T05:30:36.821Z,83.32
2023-04-02T05:35:43.010Z,83.15
2023-04-02T05:40:48.339Z,83.16
2023-04-02T05:45:56.806Z,83.19
2023-04-02T05:51:00.378Z,83.20
2023-04-02T05:56:09.144Z,83.05
2023-04-02T06:01:20.956Z,82.97
2023-04-02T06:06:37.318Z,82.97
2023-04-02T06:11:42.452Z,82.79
2023-04-02T06:16:44.990Z,82.54
2023-04-02T06:21:52.171Z,82.41
2023-04-02T06:27:01.544Z,82.21
2023-04-02T06:32:03.632Z,81.57
2023-04-02T06:37:06.495Z,81.42
2023-04-02T06:42:14.166Z,81.44
2023-04-02T06:47:39.017Z,81.51
2023-04-02T06:52:46.180Z,81.52
2023-04-02T06:57:46.323Z,81.45
2023-04-02T07:02:46.712Z,81.52
2023-04-02T07:07:46.217Z,81.61
2023-04-02T07:12:47.925Z,81.67
2023-04-02T07:17:48.397Z,81.63
2023-04-02T07:22:47.535Z,81.63
2023-04-02T07:27:47.249Z,81.44
2023-04-02T07:32:48.240Z,81.63
2023-04-02T07:37:47.642Z,81.67
2023-04-02T07:42:46.616Z,81.64
2023-04-02T07:47:45.799Z,81.60
2023-04-02T07:52:46.348Z,81.51
2023-04-02T07:57:51.782Z,81.40
2023-04-02T08:02:51.805Z,81.31
2023-04-02T08:07:57.779Z,81.28
2023-04-02T08:12:56.865Z,81.13
2023-04-02T08:17:56.469Z,80.23
2023-04-02T08:22:59.135Z,80.22
2023-04-02T08:27:58.197Z,80.06
2023-04-02T08:32:57.075Z,80.19
2023-04-02T08:37:55.651Z,80.18
2023-04-02T08:43:21.777Z,80.28
2023-04-02T08:48:23.604Z,80.31
2023-04-02T08:53:27.068Z,80.20
2023-04-02T08:58:39.617Z,79.98
2023-04-02T09:03:44.121Z,79.90
2023-04-02T09:08:48.029Z,79.90
2023-04-02T09:13:51.909Z,79.86
2023-04-02T09:18:54.070Z,79.82
2023-04-02T09:23:53.778Z,79.87
2023-04-02T09:28:54.222Z,79.83
2023-04-02T09:33:55.048Z,79.71
2023-04-02T09:39:07.058Z,79.73
2023-04-02T09:44:31.976Z,79.52
2023-04-02T09:49:35.525Z,79.64
2023-04-02T09:54:34.298Z,79.19
2023-04-02T09:59:33.752Z,79.19
2023-04-02T10:04:44.468Z,79.26
2023-04-02T10:09:43.715Z,79.35
2023-04-02T10:14:51.346Z,79.26
2023-04-02T10:19:55.479Z,79.12
2023-04-02T10:24:55.084Z,79.28
2023-04-02T10:30:14.805Z,79.20
2023-04-02T10:35:28.729Z,79.24
2023-04-02T10:40:36.657Z,79.28
2023-04-02T10:45:47.358Z,79.29
2023-04-02T10:50:56.332Z,79.30
2023-04-02T10:56:01.518Z,79.41
2023-04-02T11:01:08.448Z,79.48
2023-04-02T11:06:17.575Z,79.57
2023-04-02T11:11:22.711Z,79.66
2023-04-02T11:16:22.466Z,79.73
2023-04-02T11:21:57.131Z,79.80
2023-04-02T11:27:07.860Z,79.87
2023-04-02T11:32:42.779Z,79.98
2023-04-02T11:37:45.723Z,80.35
2023-04-02T11:42:47.415Z,80.40
2023-04-02T11:48:24.409Z,80.30
2023-04-02T11:53:31.825Z,80.49
2023-04-02T11:58:47.356Z,80.57
2023-04-02T12:04:15.985Z,80.59
2023-04-02T12:09:24.696Z,80.66
2023-04-02T12:14:50.132Z,80.53
2023-04-02T12:19:55.769Z,80.40
2023-04-02T12:24:59.743Z,80.37
2023-04-02T12:30:16.180Z,80.47
2023-04-02T12:35:36.103Z,80.64
2023-04-02T12:40:35.232Z,80.74
2023-04-02T12:45:37.517Z,80.63
2023-04-02T12:50:37.600Z,80.46
2023-04-02T12:55:38.583Z,80.34
2023-04-02T13:00:42.186Z,80.20
2023-04-02T13:05:46.002Z,79.69
2023-04-02T13:10:46.319Z,79.46
2023-04-02T13:15:46.403Z,79.58
2023-04-02T13:20:56.443Z,79.65
2023-04-02T13:25:56.311Z,79.34
2023-04-02T13:30:55.811Z,79.30
2023-04-02T13:35:55.316Z,79.43
2023-04-02T13:40:54.912Z,79.61
2023-04-02T13:46:00.173Z,79.87
2023-04-02T13:50:59.728Z,80.04
2023-04-02T13:55:59.680Z,80.22
2023-04-02T14:00:59.099Z,80.17
2023-04-02T14:06:09.698Z,80.27
2023-04-02T14:11:29.743Z,80.58
2023-04-02T14:16:59.040Z,80.64
2023-04-02T14:22:18.320Z,80.37
2023-04-02T14:27:32.990Z,80.72
2023-04-02T14:32:45.304Z,81.24
2023-04-02T14:37:58.019Z,81.47
2023-04-02T14:43:07.069Z,81.49
2023-04-02T14:48:14.947Z,81.41
2023-04-02T14:53:23.981Z,81.82
2023-04-02T14:58:32.472Z,81.81
2023-04-02T15:03:38.869Z,82.18
2023-04-02T15:08:52.267Z,82.35
2023-04-02T15:14:03.975Z,82.41
2023-04-02T15:19:05.844Z,82.57
2023-04-02T15:24:17.008Z,82.56
2023-04-02T15:29:41.363Z,82.66
2023-04-02T15:34:49.219Z,82.70
2023-04-02T15:40:01.328Z,83.08
2023-04-02T15:45:31.197Z,83.24
2023-04-02T15:50:48.302Z,83.35
2023-04-02T15:55:56.378Z,83.29
2023-04-02T16:01:13.458Z,83.29
2023-04-02T16:06:32.627Z,83.59
2023-04-02T16:11:32.075Z,83.81
2023-04-02T16:16:37.544Z,84.22
2023-04-02T16:21:44.420Z,84.31
2023-04-02T16:27:00.909Z,84.04
2023-04-02T16:32:12.216Z,84.10
2023-04-02T16:37:24.251Z,84.36
2023-04-02T16:42:36.797Z,84.34
2023-04-02T16:47:57.980Z,84.50
2023-04-02T16:53:11.709Z,84.51
2023-04-02T16:58:31.518Z,84.56
2023-04-02T17:03:57.498Z,84.55
2023-04-02T17:09:09.038Z,84.59
2023-04-02T17:14:18.265Z,84.67
2023-04-02T17:19:21.683Z,85.03
2023-04-02T17:24:28.116Z,85.04
2023-04-02T17:29:36.253Z,84.86
2023-04-02T17:34:35.351Z,84.98
2023-04-02T17:39:47.507Z,85.01
2023-04-02T17:45:06.883Z,85.09
2023-04-02T17:50:35.018Z,85.11
2023-04-02T17:55:50.382Z,85.23
2023-04-02T18:01:08.140Z,85.23
2023-04-02T18:06:15.721Z,85.31
2023-04-02T18:11:31.156Z,85.32
2023-04-02T18:16:49.117Z,85.46
2023-04-02T18:22:00.277Z,85.56
2023-04-02T18:27:20.254Z,85.67
2023-04-02T18:32:43.972Z,85.72
2023-04-02T18:38:02.222Z,85.56
2023-04-02T18:43:12.624Z,85.46
2023-04-02T18:48:29.812Z,85.40
2023-04-02T18:53:35.109Z,85.39
2023-04-02T18:58:52.144Z,85.41
2023-04-02T19:03:59.730Z,85.25
2023-04-02T19:09:08.104Z,85.20
2023-04-02T19:14:15.686Z,85.24
2023-04-02T19:19:22.887Z,85.26
2023-04-02T19:24:47.669Z,85.27
2023-04-02T19:30:05.399Z,85.26
2023-04-02T19:35:16.834Z,85.30
2023-04-02T19:40:30.925Z,85.44
2023-04-02T19:45:43.223Z,85.35
2023-04-02T19:50:42.653Z,85.34
2023-04-02T19:55:42.679Z,85.07
2023-04-02T20:00:42.119Z,85.12
2023-04-02T20:05:41.067Z,85.04
2023-04-02T20:10:40.184Z,84.98
2023-04-02T20:15:40.289Z,84.86
2023-04-02T20:20:39.568Z,84.89
2023-04-02T20:25:39.078Z,84.79
2023-04-02T20:30:38.347Z,84.59
2023-04-02T20:35:38.072Z,84.49
2023-04-02T20:40:40.105Z,84.20
2023-04-02T20:45:40.095Z,84.04
2023-04-02T20:50:40.416Z,83.70
2023-04-02T20:55:39.864Z,83.39
2023-04-02T21:00:42.298Z,83.13
2023-04-02T21:05:48.934Z,82.72
2023-04-02T21:10:47.584Z,81.69
2023-04-02T21:15:46.978Z,81.21
2023-04-02T21:20:45.557Z,80.30
2023-04-02T21:25:45.301Z,79.92
2023-04-02T21:30:44.296Z,80.00
2023-04-02T21:35:43.619Z,79.71
2023-04-02T21:40:44.099Z,79.59
2023-04-02T21:45:43.137Z,79.39
2023-04-02T21:50:44.603Z,78.39
2023-04-02T21:55:45.410Z,77.49
2023-04-02T22:00:45.014Z,76.94
2023-04-02T22:05:44.295Z,76.41
2023-04-02T22:10:43.450Z,75.93
2023-04-02T22:15:43.514Z,75.89
2023-04-02T22:20:44.225Z,75.45
2023-04-02T22:25:43.043Z,74.17
2023-04-02T22:30:42.346Z,73.76
2023-04-02T22:35:41.617Z,73.13
2023-04-02T22:40:41.019Z,72.55
2023-04-02T22:45:39.655Z,71.39
2023-04-02T22:50:38.900Z,71.62
2023-04-02T22:55:38.723Z,70.95
2023-04-02T23:00:39.396Z,71.49
2023-04-02T23:05:42.635Z,71.40
2023-04-02T23:10:42.195Z,71.26
2023-04-02T23:15:41.531Z,72.12
2023-04-02T23:20:41.794Z,71.56
2023-04-02T23:25:43.280Z,70.95
2023-04-02T23:30:43.257Z,70.23
2023-04-02T23:35:42.403Z,70.98
2023-04-02T23:40:44.942Z,71.14
2023-04-02T23:45:49.461Z,71.31
2023-04-02T23:50:49.304Z,71.24
2023-04-02T23:55:49.099Z,71.06
